SAS36P EGKK-EKCH
Flight info
| Callsign | SAS36P |
|---|---|
| Flight time | N/A |
| Altitude | 37000 |
| Route | FRANE1Z FRANE M604 PAAVO Q295 SOMVA DCT MAVAS DCT DOSUR DCT TALSA P729 TUDLO TUDLO4A |
| Aircraft | A320/M-SDE3FGHIRWY/LB1 |
Departure
| Time | 2026-05-06 11:31 |
|---|---|
| Airport | London Gatwick Airport (EGKK) |
Arrival
| Time | N/A |
|---|---|
| Airport | Copenhagen Kastrup Airport (EKCH) |
| Time | Latitude | Longitude | Altitude | Speed | Heading |
|---|---|---|---|---|---|
| 2026-05-06 11:04 | 51.15861 | -0.17938 | 204 ft | 0 kts | 78° |
| 2026-05-06 11:15 | 51.15859 | -0.17956 | 204 ft | 2 kts | 78° |
| 2026-05-06 11:15 | 51.15855 | -0.17983 | 206 ft | 2 kts | 78° |
| 2026-05-06 11:16 | 51.15851 | -0.18010 | 212 ft | 2 kts | 78° |
| 2026-05-06 11:16 | 51.15848 | -0.18036 | 216 ft | 2 kts | 78° |
| 2026-05-06 11:16 | 51.15844 | -0.18063 | 216 ft | 2 kts | 111° |
| 2026-05-06 11:16 | 51.15852 | -0.18081 | 212 ft | 0 kts | 166° |
| 2026-05-06 11:18 | 51.15848 | -0.18080 | 216 ft | 2 kts | 167° |
| 2026-05-06 11:19 | 51.15825 | -0.18072 | 209 ft | 5 kts | 168° |
| 2026-05-06 11:19 | 51.15784 | -0.18058 | 207 ft | 7 kts | 167° |
| 2026-05-06 11:19 | 51.15734 | -0.18041 | 209 ft | 8 kts | 169° |
| 2026-05-06 11:19 | 51.15687 | -0.18083 | 208 ft | 9 kts | 242° |
| 2026-05-06 11:20 | 51.15665 | -0.18191 | 207 ft | 11 kts | 249° |
| 2026-05-06 11:20 | 51.15598 | -0.18226 | 208 ft | 11 kts | 169° |
| 2026-05-06 11:20 | 51.15515 | -0.18197 | 204 ft | 13 kts | 167° |
| 2026-05-06 11:20 | 51.15430 | -0.18159 | 212 ft | 13 kts | 165° |
| 2026-05-06 11:21 | 51.15359 | -0.18133 | 213 ft | 5 kts | 169° |
| 2026-05-06 11:21 | 51.15317 | -0.18119 | 206 ft | 5 kts | 167° |
| 2026-05-06 11:21 | 51.15293 | -0.18111 | 212 ft | 2 kts | 167° |
| 2026-05-06 11:21 | 51.15291 | -0.18110 | 212 ft | 0 kts | 167° |
| 2026-05-06 11:22 | 51.15274 | -0.18104 | 207 ft | 4 kts | 167° |
| 2026-05-06 11:22 | 51.15236 | -0.18097 | 204 ft | 7 kts | 188° |
| 2026-05-06 11:22 | 51.15206 | -0.18153 | 207 ft | 8 kts | 248° |
| 2026-05-06 11:23 | 51.15190 | -0.18251 | 210 ft | 10 kts | 259° |
| 2026-05-06 11:23 | 51.15178 | -0.18377 | 204 ft | 13 kts | 258° |
| 2026-05-06 11:23 | 51.15160 | -0.18515 | 208 ft | 13 kts | 258° |
| 2026-05-06 11:23 | 51.15141 | -0.18663 | 206 ft | 14 kts | 258° |
| 2026-05-06 11:24 | 51.15117 | -0.18831 | 207 ft | 17 kts | 257° |
| 2026-05-06 11:24 | 51.15091 | -0.19019 | 204 ft | 18 kts | 258° |
| 2026-05-06 11:24 | 51.15063 | -0.19222 | 204 ft | 19 kts | 257° |
| 2026-05-06 11:24 | 51.15033 | -0.19439 | 206 ft | 20 kts | 257° |
| 2026-05-06 11:25 | 51.15006 | -0.19626 | 204 ft | 15 kts | 259° |
| 2026-05-06 11:25 | 51.14984 | -0.19791 | 212 ft | 16 kts | 258° |
| 2026-05-06 11:25 | 51.14963 | -0.19946 | 204 ft | 15 kts | 257° |
| 2026-05-06 11:25 | 51.14940 | -0.20105 | 213 ft | 15 kts | 258° |
| 2026-05-06 11:26 | 51.14918 | -0.20262 | 203 ft | 14 kts | 256° |
| 2026-05-06 11:26 | 51.14898 | -0.20408 | 215 ft | 13 kts | 259° |
| 2026-05-06 11:26 | 51.14880 | -0.20552 | 206 ft | 12 kts | 256° |
| 2026-05-06 11:26 | 51.14834 | -0.20646 | 206 ft | 12 kts | 208° |
| 2026-05-06 11:27 | 51.14755 | -0.20707 | 212 ft | 13 kts | 201° |
| 2026-05-06 11:27 | 51.14678 | -0.20703 | 204 ft | 12 kts | 171° |
| 2026-05-06 11:27 | 51.14599 | -0.20664 | 213 ft | 11 kts | 129° |
| 2026-05-06 11:27 | 51.14598 | -0.20608 | 217 ft | 0 kts | 81° |
| 2026-05-06 11:30 | 51.14610 | -0.20514 | 205 ft | 35 kts | 77° |
| 2026-05-06 11:31 | 51.14717 | -0.19754 | 209 ft | 102 kts | 77° |
| 2026-05-06 11:31 | 51.14910 | -0.18368 | 212 ft | 151 kts | 73° |
| 2026-05-06 11:31 | 51.15103 | -0.16694 | 745 ft | 158 kts | 76° |
| 2026-05-06 11:31 | 51.15302 | -0.14916 | 1336 ft | 164 kts | 72° |
| 2026-05-06 11:32 | 51.15563 | -0.13081 | 1806 ft | 180 kts | 72° |
| 2026-05-06 11:32 | 51.15871 | -0.11011 | 2136 ft | 205 kts | 73° |
| 2026-05-06 11:32 | 51.16215 | -0.08674 | 2575 ft | 229 kts | 72° |
| 2026-05-06 11:32 | 51.16592 | -0.06073 | 3128 ft | 249 kts | 74° |
| 2026-05-06 11:33 | 51.16893 | -0.03298 | 3973 ft | 260 kts | 85° |
| 2026-05-06 11:33 | 51.16852 | -0.00364 | 4748 ft | 270 kts | 88° |
| 2026-05-06 11:33 | 51.16795 | 0.02626 | 4968 ft | 270 kts | 88° |
| 2026-05-06 11:33 | 51.16735 | 0.05620 | 5016 ft | 271 kts | 88° |
| 2026-05-06 11:34 | 51.16676 | 0.08614 | 5024 ft | 269 kts | 88° |
| 2026-05-06 11:34 | 51.16619 | 0.11592 | 5030 ft | 269 kts | 88° |
| 2026-05-06 11:34 | 51.16566 | 0.14579 | 5046 ft | 270 kts | 88° |
| 2026-05-06 11:34 | 51.16530 | 0.17570 | 5041 ft | 269 kts | 86° |
| 2026-05-06 11:35 | 51.16529 | 0.20541 | 5047 ft | 269 kts | 86° |
| 2026-05-06 11:35 | 51.16541 | 0.23524 | 5052 ft | 269 kts | 85° |
| 2026-05-06 11:35 | 51.16556 | 0.26503 | 5069 ft | 269 kts | 85° |
| 2026-05-06 11:35 | 51.16569 | 0.29479 | 5073 ft | 269 kts | 85° |
| 2026-05-06 11:36 | 51.16579 | 0.32417 | 5063 ft | 269 kts | 86° |
| 2026-05-06 11:36 | 51.16587 | 0.35396 | 5061 ft | 269 kts | 86° |
| 2026-05-06 11:36 | 51.16591 | 0.38371 | 5093 ft | 268 kts | 86° |
| 2026-05-06 11:36 | 51.16593 | 0.41332 | 5288 ft | 266 kts | 86° |
| 2026-05-06 11:37 | 51.16596 | 0.44311 | 5679 ft | 271 kts | 86° |
| 2026-05-06 11:37 | 51.16598 | 0.47341 | 6075 ft | 275 kts | 86° |
| 2026-05-06 11:37 | 51.16733 | 0.50360 | 6479 ft | 271 kts | 72° |
| 2026-05-06 11:37 | 51.17509 | 0.53045 | 6845 ft | 266 kts | 50° |
| 2026-05-06 11:38 | 51.18851 | 0.55025 | 7231 ft | 263 kts | 29° |
| 2026-05-06 11:38 | 51.20543 | 0.56067 | 7596 ft | 262 kts | 12° |
| 2026-05-06 11:38 | 51.22330 | 0.56731 | 7974 ft | 265 kts | 12° |
| 2026-05-06 11:38 | 51.24138 | 0.57401 | 8357 ft | 267 kts | 11° |
| 2026-05-06 11:39 | 51.25955 | 0.58072 | 8743 ft | 268 kts | 11° |
| 2026-05-06 11:39 | 51.27783 | 0.58748 | 9135 ft | 271 kts | 12° |
| 2026-05-06 11:39 | 51.29633 | 0.59439 | 9532 ft | 275 kts | 12° |
| 2026-05-06 11:39 | 51.31499 | 0.60135 | 9928 ft | 275 kts | 11° |
| 2026-05-06 11:40 | 51.33371 | 0.60834 | 10236 ft | 278 kts | 12° |
| 2026-05-06 11:40 | 51.34629 | 0.61305 | 10478 ft | 281 kts | 12° |
| 2026-05-06 11:40 | 51.37167 | 0.62259 | 10966 ft | 285 kts | 11° |
| 2026-05-06 11:40 | 51.39102 | 0.62983 | 11346 ft | 289 kts | 11° |
| 2026-05-06 11:41 | 51.41119 | 0.63738 | 11735 ft | 306 kts | 11° |
| 2026-05-06 11:41 | 51.43250 | 0.64541 | 12123 ft | 323 kts | 11° |
| 2026-05-06 11:41 | 51.45475 | 0.65385 | 12519 ft | 332 kts | 11° |
| 2026-05-06 11:41 | 51.47005 | 0.65968 | 12783 ft | 336 kts | 12° |
| 2026-05-06 11:42 | 51.49263 | 0.66830 | 13175 ft | 338 kts | 11° |
| 2026-05-06 11:42 | 51.51559 | 0.67705 | 13578 ft | 341 kts | 12° |
| 2026-05-06 11:42 | 51.53877 | 0.68587 | 13960 ft | 343 kts | 11° |
| 2026-05-06 11:42 | 51.56210 | 0.69475 | 14326 ft | 345 kts | 11° |
| 2026-05-06 11:43 | 51.58563 | 0.70371 | 14691 ft | 348 kts | 11° |
| 2026-05-06 11:43 | 51.60935 | 0.71274 | 15063 ft | 351 kts | 11° |
| 2026-05-06 11:43 | 51.63325 | 0.72182 | 15440 ft | 354 kts | 11° |
| 2026-05-06 11:44 | 51.68153 | 0.74026 | 16205 ft | 359 kts | 11° |
| 2026-05-06 11:44 | 51.70592 | 0.74961 | 16591 ft | 361 kts | 10° |
| 2026-05-06 11:44 | 51.73047 | 0.75902 | 16989 ft | 364 kts | 10° |
| 2026-05-06 11:44 | 51.75515 | 0.76849 | 17383 ft | 366 kts | 11° |
| 2026-05-06 11:45 | 51.78006 | 0.77803 | 17797 ft | 369 kts | 11° |
| 2026-05-06 11:45 | 51.80480 | 0.78958 | 18204 ft | 373 kts | 19° |
| 2026-05-06 11:45 | 51.82828 | 0.80841 | 18631 ft | 381 kts | 31° |
| 2026-05-06 11:45 | 51.84960 | 0.83418 | 19173 ft | 386 kts | 40° |
| 2026-05-06 11:46 | 51.86660 | 0.86741 | 19727 ft | 393 kts | 60° |
| 2026-05-06 11:46 | 51.87584 | 0.90906 | 20315 ft | 397 kts | 81° |
| 2026-05-06 11:46 | 51.87737 | 0.95389 | 20851 ft | 401 kts | 88° |
| 2026-05-06 11:46 | 51.87964 | 0.99898 | 21428 ft | 404 kts | 82° |
| 2026-05-06 11:47 | 51.88534 | 1.04362 | 22016 ft | 407 kts | 74° |
| 2026-05-06 11:47 | 51.89505 | 1.08692 | 22590 ft | 411 kts | 67° |
| 2026-05-06 11:47 | 51.90636 | 1.12967 | 23139 ft | 414 kts | 66° |
| 2026-05-06 11:47 | 51.91813 | 1.17239 | 23643 ft | 418 kts | 66° |
| 2026-05-06 11:48 | 51.93017 | 1.21547 | 24107 ft | 421 kts | 66° |
| 2026-05-06 11:48 | 51.94224 | 1.25882 | 24580 ft | 423 kts | 66° |
| 2026-05-06 11:48 | 51.95430 | 1.30256 | 25029 ft | 426 kts | 66° |
| 2026-05-06 11:48 | 51.96637 | 1.34667 | 25468 ft | 428 kts | 66° |
| 2026-05-06 11:49 | 51.97836 | 1.39094 | 25892 ft | 430 kts | 66° |
| 2026-05-06 11:49 | 51.99038 | 1.43560 | 26317 ft | 433 kts | 66° |
| 2026-05-06 11:49 | 52.00227 | 1.47998 | 26718 ft | 435 kts | 67° |
| 2026-05-06 11:49 | 52.01435 | 1.52516 | 27106 ft | 438 kts | 67° |
| 2026-05-06 11:50 | 52.02649 | 1.57066 | 27508 ft | 440 kts | 67° |
| 2026-05-06 11:50 | 52.03875 | 1.61652 | 27914 ft | 443 kts | 67° |
| 2026-05-06 11:50 | 52.05108 | 1.66262 | 28294 ft | 446 kts | 67° |
| 2026-05-06 11:50 | 52.06343 | 1.70894 | 28680 ft | 448 kts | 67° |
| 2026-05-06 11:51 | 52.07583 | 1.75556 | 29062 ft | 451 kts | 67° |
| 2026-05-06 11:51 | 52.08828 | 1.80251 | 29439 ft | 453 kts | 67° |
| 2026-05-06 11:51 | 52.10076 | 1.84972 | 29819 ft | 455 kts | 67° |
| 2026-05-06 11:51 | 52.11330 | 1.89719 | 30167 ft | 458 kts | 67° |
| 2026-05-06 11:52 | 52.12590 | 1.94488 | 30497 ft | 460 kts | 67° |
| 2026-05-06 11:52 | 52.13852 | 1.99278 | 30831 ft | 461 kts | 67° |
| 2026-05-06 11:52 | 52.15115 | 2.04088 | 31226 ft | 460 kts | 67° |
| 2026-05-06 11:52 | 52.16372 | 2.08874 | 31698 ft | 459 kts | 67° |
| 2026-05-06 11:53 | 52.17618 | 2.13641 | 32161 ft | 457 kts | 67° |
| 2026-05-06 11:53 | 52.18847 | 2.18357 | 32610 ft | 456 kts | 67° |
| 2026-05-06 11:53 | 52.20085 | 2.23117 | 33068 ft | 455 kts | 67° |
| 2026-05-06 11:53 | 52.21316 | 2.27856 | 33535 ft | 454 kts | 68° |
| 2026-05-06 11:54 | 52.22546 | 2.32596 | 33979 ft | 453 kts | 67° |
| 2026-05-06 11:54 | 52.23775 | 2.37336 | 34346 ft | 452 kts | 68° |
| 2026-05-06 11:54 | 52.24998 | 2.42068 | 34677 ft | 452 kts | 68° |
| 2026-05-06 11:54 | 52.26221 | 2.46808 | 34997 ft | 453 kts | 68° |
| 2026-05-06 11:55 | 52.27429 | 2.51500 | 35263 ft | 454 kts | 68° |
| 2026-05-06 11:55 | 52.28650 | 2.56262 | 35532 ft | 455 kts | 68° |
| 2026-05-06 11:55 | 52.29871 | 2.61039 | 35806 ft | 456 kts | 68° |
| 2026-05-06 11:55 | 52.30994 | 2.65887 | 36089 ft | 456 kts | 75° |
| 2026-05-06 11:56 | 52.31873 | 2.70862 | 36370 ft | 456 kts | 75° |
| 2026-05-06 11:56 | 52.32751 | 2.75847 | 36649 ft | 457 kts | 75° |
| 2026-05-06 11:56 | 52.33630 | 2.80849 | 36884 ft | 458 kts | 75° |
| 2026-05-06 11:56 | 52.34511 | 2.85872 | 36950 ft | 460 kts | 75° |
| 2026-05-06 11:57 | 52.36268 | 2.95936 | 36947 ft | 461 kts | 75° |
| 2026-05-06 11:57 | 52.38018 | 3.06018 | 36945 ft | 461 kts | 75° |
| 2026-05-06 11:58 | 52.40048 | 3.15956 | 36948 ft | 462 kts | 65° |
| 2026-05-06 11:58 | 52.43559 | 3.24750 | 36948 ft | 463 kts | 53° |
| 2026-05-06 11:59 | 52.47435 | 3.33199 | 36950 ft | 463 kts | 53° |
| 2026-05-06 11:59 | 52.51298 | 3.41688 | 36950 ft | 464 kts | 53° |
| 2026-05-06 12:00 | 52.55152 | 3.50199 | 36943 ft | 464 kts | 54° |
| 2026-05-06 12:00 | 52.58984 | 3.58676 | 36946 ft | 465 kts | 54° |
| 2026-05-06 12:01 | 52.62835 | 3.67218 | 36945 ft | 465 kts | 54° |
| 2026-05-06 12:01 | 52.66680 | 3.75792 | 36947 ft | 465 kts | 54° |
| 2026-05-06 12:02 | 52.70521 | 3.84381 | 36948 ft | 465 kts | 54° |
| 2026-05-06 12:02 | 52.74359 | 3.92990 | 36942 ft | 466 kts | 54° |
| 2026-05-06 12:03 | 52.78188 | 4.01620 | 36940 ft | 466 kts | 54° |
| 2026-05-06 12:03 | 52.82014 | 4.10261 | 36932 ft | 466 kts | 54° |
| 2026-05-06 12:04 | 52.85843 | 4.18913 | 36937 ft | 466 kts | 54° |
| 2026-05-06 12:04 | 52.89657 | 4.27575 | 36941 ft | 465 kts | 54° |
| 2026-05-06 12:05 | 52.93440 | 4.36209 | 36955 ft | 466 kts | 54° |
| 2026-05-06 12:05 | 52.97245 | 4.44929 | 36947 ft | 466 kts | 54° |
| 2026-05-06 12:06 | 53.01056 | 4.53672 | 36945 ft | 467 kts | 54° |
| 2026-05-06 12:06 | 53.04856 | 4.62418 | 36945 ft | 467 kts | 55° |
| 2026-05-06 12:07 | 53.08621 | 4.71135 | 36938 ft | 467 kts | 55° |
| 2026-05-06 12:07 | 53.12407 | 4.79923 | 36959 ft | 467 kts | 55° |
| 2026-05-06 12:08 | 53.16186 | 4.88716 | 36973 ft | 467 kts | 55° |
| 2026-05-06 12:08 | 53.19962 | 4.97544 | 36947 ft | 467 kts | 55° |
| 2026-05-06 12:09 | 53.23736 | 5.06391 | 36954 ft | 468 kts | 55° |
| 2026-05-06 12:09 | 53.27510 | 5.15266 | 36955 ft | 468 kts | 55° |
| 2026-05-06 12:10 | 53.31272 | 5.24157 | 36958 ft | 468 kts | 55° |
| 2026-05-06 12:10 | 53.35011 | 5.33009 | 36967 ft | 469 kts | 55° |
| 2026-05-06 12:11 | 53.38769 | 5.41930 | 36964 ft | 469 kts | 55° |
| 2026-05-06 12:11 | 53.42519 | 5.50870 | 36969 ft | 468 kts | 56° |
| 2026-05-06 12:12 | 53.46251 | 5.59822 | 36959 ft | 468 kts | 56° |
| 2026-05-06 12:12 | 53.49978 | 5.68784 | 36945 ft | 468 kts | 56° |
| 2026-05-06 12:13 | 53.53699 | 5.77762 | 36945 ft | 468 kts | 56° |
| 2026-05-06 12:13 | 53.57413 | 5.86750 | 36941 ft | 468 kts | 56° |
| 2026-05-06 12:14 | 53.61131 | 5.95782 | 36953 ft | 469 kts | 56° |
| 2026-05-06 12:14 | 53.64821 | 6.04771 | 36948 ft | 469 kts | 56° |
| 2026-05-06 12:15 | 53.68527 | 6.13827 | 36947 ft | 469 kts | 56° |
| 2026-05-06 12:15 | 53.72224 | 6.22904 | 36952 ft | 469 kts | 56° |
| 2026-05-06 12:16 | 53.75911 | 6.31993 | 36939 ft | 468 kts | 56° |
| 2026-05-06 12:16 | 53.79585 | 6.41089 | 36945 ft | 468 kts | 56° |
| 2026-05-06 12:17 | 53.83252 | 6.50190 | 36946 ft | 468 kts | 57° |
| 2026-05-06 12:17 | 53.86919 | 6.59333 | 36945 ft | 469 kts | 57° |
| 2026-05-06 12:18 | 53.90554 | 6.68434 | 36944 ft | 469 kts | 57° |
| 2026-05-06 12:18 | 53.94216 | 6.77608 | 36940 ft | 469 kts | 57° |
| 2026-05-06 12:19 | 53.97874 | 6.86803 | 36931 ft | 469 kts | 57° |
| 2026-05-06 12:19 | 54.01514 | 6.96015 | 36935 ft | 469 kts | 57° |
| 2026-05-06 12:20 | 54.05149 | 7.05243 | 36950 ft | 470 kts | 57° |
| 2026-05-06 12:20 | 54.08789 | 7.14507 | 36944 ft | 471 kts | 57° |
| 2026-05-06 12:21 | 54.12428 | 7.23793 | 36936 ft | 471 kts | 57° |
| 2026-05-06 12:21 | 54.16062 | 7.33123 | 36944 ft | 472 kts | 57° |
| 2026-05-06 12:22 | 54.19682 | 7.42465 | 36946 ft | 472 kts | 57° |
| 2026-05-06 12:22 | 54.23277 | 7.51756 | 36937 ft | 472 kts | 57° |
| 2026-05-06 12:23 | 54.26892 | 7.61133 | 36949 ft | 472 kts | 57° |
| 2026-05-06 12:23 | 54.30507 | 7.70557 | 36939 ft | 473 kts | 57° |
| 2026-05-06 12:24 | 54.34113 | 7.79978 | 36938 ft | 473 kts | 57° |
| 2026-05-06 12:24 | 54.37688 | 7.89364 | 36938 ft | 473 kts | 57° |
| 2026-05-06 12:25 | 54.41282 | 7.98834 | 36935 ft | 474 kts | 58° |
| 2026-05-06 12:25 | 54.44870 | 8.08323 | 36929 ft | 474 kts | 58° |
| 2026-05-06 12:26 | 54.48448 | 8.17837 | 36947 ft | 474 kts | 58° |
| 2026-05-06 12:26 | 54.52021 | 8.27368 | 36938 ft | 474 kts | 58° |
| 2026-05-06 12:27 | 54.55596 | 8.36915 | 36933 ft | 475 kts | 58° |
| 2026-05-06 12:27 | 54.59166 | 8.46492 | 36930 ft | 475 kts | 58° |
| 2026-05-06 12:28 | 54.62723 | 8.56095 | 36929 ft | 475 kts | 58° |
| 2026-05-06 12:28 | 54.66281 | 8.65709 | 36907 ft | 475 kts | 59° |
| 2026-05-06 12:29 | 54.69236 | 8.73705 | 36915 ft | 475 kts | 58° |
| 2026-05-06 12:29 | 54.72773 | 8.83349 | 36922 ft | 475 kts | 59° |
| 2026-05-06 12:30 | 54.76883 | 8.94628 | 36511 ft | 480 kts | 59° |
| 2026-05-06 12:30 | 54.78086 | 8.97937 | 36115 ft | 480 kts | 59° |
| 2026-05-06 12:30 | 54.79859 | 9.02808 | 35613 ft | 477 kts | 59° |
| 2026-05-06 12:31 | 54.81625 | 9.07670 | 35116 ft | 475 kts | 59° |
| 2026-05-06 12:31 | 54.83381 | 9.12521 | 34635 ft | 474 kts | 59° |
| 2026-05-06 12:31 | 54.85133 | 9.17352 | 34156 ft | 471 kts | 58° |
| 2026-05-06 12:31 | 54.87083 | 9.21822 | 33647 ft | 470 kts | 50° |
| 2026-05-06 12:32 | 54.89239 | 9.26065 | 33096 ft | 467 kts | 50° |
| 2026-05-06 12:32 | 54.91385 | 9.30284 | 32556 ft | 465 kts | 50° |
| 2026-05-06 12:32 | 54.93518 | 9.34481 | 32023 ft | 461 kts | 50° |
| 2026-05-06 12:32 | 54.95634 | 9.38654 | 31494 ft | 458 kts | 50° |
| 2026-05-06 12:33 | 54.97732 | 9.42794 | 30982 ft | 454 kts | 50° |
| 2026-05-06 12:33 | 54.99816 | 9.46913 | 30482 ft | 451 kts | 50° |
| 2026-05-06 12:33 | 55.01877 | 9.51000 | 29982 ft | 447 kts | 50° |
| 2026-05-06 12:33 | 55.03694 | 9.55336 | 29400 ft | 441 kts | 64° |